Welkom op de weersite van Veghel e.o.

Het is weer maart en dat betekend weer Lente.

Echter na de warme februari.

Nu weer onstuimig en regenachtig.

Het gezegde "maart roert zijn staart" is weer actueel.




Webcam Veghel  Webcam Veghel


Onweer radar Meer informatie blitzortung!


Regen radar Meer informatie rain snow radar


U vindt ons ook hier:

Het Weer Aktueel

European Weather Network

Weather Underground

Benelux Weer Netwerk

AWEKAS


Het weer levert geen direct gevaar op.    Er zijn geen waarschuwingen afgegeven.

METAR rapporten vliegvelden

   
EHAM - Amsterdam
Gewijzigd: 23-03-2019 13:55
Grotendeels bewolkt  
Grotendeels bewolkt  
   Wind: Noorden 14.8 km/h
Wind: Noorden 14.8 km/h
Temperatuur: 11°C
Dauwpunt: 6°C
Vochtigheid: 72%
Barometer: 1031 hPa
Bewolking: Mostly Cloudy
Zicht: meer dan 10 km
Bewolking: Licht bewolkt 2000 ft,
Gedeeltelijk bewolkt 3500 ft,
Grotendeels bewolkt 4400 ft
EHAM 231255Z 01008KT 9999 FEW020 SCT035 BKN044 11/06 Q1031 NOSIG
EHEH - Eindhoven
Gewijzigd: 23-03-2019 13:30
Nevel, Bewolking  
Nevel, Bewolking  
   Wind: varieert 3.7 km/h
Wind: varieert 3.7 km/h
Temperatuur: 11°C
Dauwpunt: 8°C
Vochtigheid: 82%
Barometer: 1030 hPa
Bewolking: Overcast
Zicht: 6 km
Bewolking: Bewolking 3400 ft
EHEH 231230Z AUTO VRB02KT 6000 BR OVC034 11/08 Q1030 WHT VRB03KT 6000 OVC030 TEMPO FEW010 SCT012 OVC030
EHGR - Gilze/Rijen
Gewijzigd: 23-03-2019 13:55
Bewolking  
Bewolking  
   Wind: NNW 11.1 km/h
Wind: NNW 11.1 km/h
Temperatuur: 12°C
Dauwpunt: 9°C
Vochtigheid: 82%
Barometer: 1030 hPa
Bewolking: Overcast
Zicht: meer dan 10 km
Bewolking: Grotendeels bewolkt 1700 ft,
Grotendeels bewolkt 2300 ft,
Bewolking 3700 ft
EHGR 231255Z AUTO 34006KT 270V060 9999 BKN017 BKN023 OVC037 12/09 Q1030 WHT
EHBK - Maastricht
Gewijzigd: 23-03-2019 13:55
Bewolking  
Bewolking  
   Wind: NW 9.3 km/h
Wind: NW 9.3 km/h
Temperatuur: 10°C
Voelt als: 9°C
Dauwpunt: 6°C
Vochtigheid: 76%
Barometer: 1030 hPa
Bewolking: Overcast
Zicht: 6 km
Bewolking: Bewolking 1700 ft
EHBK 231255Z AUTO 31005KT 270V350 6000 OVC017 10/06 Q1030 NOSIG
EHVK - Volkel
Gewijzigd: 23-03-2019 13:55
Nevel, Bewolking  
Nevel, Bewolking  
   Wind: varieert 3.7 km/h
Wind: varieert 3.7 km/h
Temperatuur: 12°C
Dauwpunt: 9°C
Vochtigheid: 82%
Barometer: 1030 hPa
Bewolking: Overcast
Zicht: 7 km
Bewolking: Bewolking 3500 ft
EHVK 231255Z AUTO VRB02KT 7000 BR OVC035 12/09 Q1030 WHT
EHFS - Vlissingen
Gewijzigd: 23-03-2019 13:25
Bewolking  
Bewolking  
   Wind: Noorden 18.5 km/h
Wind: Noorden 18.5 km/h
Temperatuur: 10°C
Voelt als: 8°C
Dauwpunt: 7°C
Vochtigheid: 82%
Barometer: 1031 hPa
Bewolking: Overcast
Zicht: meer dan 10 km
Bewolking: Licht bewolkt 3000 ft,
Bewolking 3500 ft
EHFS 231225Z AUTO 01010KT 340V040 9999 FEW030/// OVC035/// 10/07 Q1031 W///H///

Script ontwikkeld door  Saratoga-weather.org Aangepast voor de template door  Weerstation Leuven

Apparatuur in gebruik:

Weerstation
Davis VP2

Weerprogramma
WeatherLink

Weercomputer
Sponsor

Webleverancier
My provider

Davis VP2

WeatherLink

Sponsor

My provider